Time;durP1;ratioP1;P1;durP2;ratioP2;P2;SDS_P1;SDS_P2;PMS_P1;PMS_P2;Temp;Humidity;BMP_temperature;BMP_pressure;BME280_temperature;BME280_humidity;BME280_pressure;Samples;Min_cycle;Max_cycle;Signal;HPM_P1;HPM_P2
2021/04/29 00:01:55;;;;;;;8.38;4.90;;;;;;;;;;5034463;28;20491;-52
2021/04/29 00:04:21;;;;;;;7.13;4.97;;;;;;;;;;5034472;28;20102;-51
2021/04/29 00:06:46;;;;;;;6.85;4.63;;;;;;;;;;5034140;28;20064;-53
2021/04/29 00:09:11;;;;;;;6.55;4.70;;;;;;;;;;5031754;28;20188;-53
2021/04/29 00:11:37;;;;;;;6.50;5.15;;;;;;;;;;5033627;28;20023;-55
2021/04/29 00:14:03;;;;;;;8.82;4.68;;;;;;;;;;5034278;28;20029;-55
2021/04/29 00:16:28;;;;;;;6.15;4.38;;;;;;;;;;5034130;28;20030;-51
2021/04/29 00:18:54;;;;;;;5.85;4.93;;;;;;;;;;5031647;28;20355;-50
2021/04/29 00:21:19;;;;;;;8.65;4.60;;;;;;;;;;5033827;28;20037;-53
2021/04/29 00:23:44;;;;;;;9.98;4.43;;;;;;;;;;5034049;28;20017;-51
2021/04/29 00:26:10;;;;;;;5.38;4.55;;;;;;;;;;5033652;28;20570;-54
2021/04/29 00:28:35;;;;;;;6.45;4.60;;;;;;;;;;5033268;28;20049;-54
2021/04/29 00:31:00;;;;;;;5.78;4.57;;;;;;;;;;5032128;28;20315;-51
2021/04/29 00:33:25;;;;;;;6.65;5.15;;;;;;;;;;5032796;28;20018;-53
2021/04/29 00:35:51;;;;;;;6.32;4.80;;;;;;;;;;5034172;28;20025;-53
2021/04/29 00:38:16;;;;;;;7.72;4.88;;;;;;;;;;5032846;28;20034;-53
2021/04/29 00:40:41;;;;;;;8.35;4.40;;;;;;;;;;5030694;28;20029;-51
2021/04/29 00:43:09;;;;;;;6.22;4.63;;;;;;;;;;5037014;28;20647;-53
2021/04/29 00:45:34;;;;;;;4.85;4.20;;;;;;;;;;5034119;28;20492;-55
2021/04/29 00:47:59;;;;;;;6.15;4.00;;;;;;;;;;5034022;28;20058;-53
2021/04/29 00:50:25;;;;;;;6.53;4.55;;;;;;;;;;5030544;28;20013;-51
2021/04/29 00:52:50;;;;;;;5.63;4.95;;;;;;;;;;5032376;28;20124;-53
2021/04/29 00:55:16;;;;;;;5.28;3.92;;;;;;;;;;5033653;28;20014;-54
2021/04/29 00:57:41;;;;;;;4.65;4.00;;;;;;;;;;5032971;28;20428;-54
2021/04/29 01:00:07;;;;;;;7.07;4.32;;;;;;;;;;5030594;28;20028;-54
2021/04/29 01:02:34;;;;;;;7.28;4.18;;;;;;;;;;5033564;28;20057;-53
2021/04/29 01:05:05;;;;;;;6.00;4.47;;;;;;;;;;5033831;28;20100;-52
2021/04/29 01:07:33;;;;;;;6.07;3.88;;;;;;;;;;5032785;28;20045;-52
2021/04/29 01:10:17;;;;;;;6.70;4.43;;;;;;;;;;5030555;28;20096;-54
2021/04/29 01:12:42;;;;;;;5.80;4.10;;;;;;;;;;5031609;28;20035;-50
2021/04/29 01:15:09;;;;;;;7.20;4.50;;;;;;;;;;5033360;28;20025;-54
2021/04/29 01:17:35;;;;;;;5.40;3.97;;;;;;;;;;5034485;28;20038;-54
2021/04/29 01:20:21;;;;;;;6.65;4.40;;;;;;;;;;5025571;28;20025;-55
2021/04/29 01:22:59;;;;;;;4.97;3.60;;;;;;;;;;5024187;28;20049;-51
2021/04/29 01:25:26;;;;;;;7.15;4.53;;;;;;;;;;5032991;28;20377;-50
2021/04/29 01:27:51;;;;;;;8.90;4.65;;;;;;;;;;5032519;28;20103;-54
2021/04/29 01:30:17;;;;;;;5.95;5.15;;;;;;;;;;5036403;28;20453;-54
2021/04/29 01:32:44;;;;;;;7.57;4.20;;;;;;;;;;5033410;28;20519;-54
2021/04/29 01:35:09;;;;;;;6.38;4.28;;;;;;;;;;5033137;28;20017;-53
2021/04/29 01:37:36;;;;;;;6.43;4.00;;;;;;;;;;5032661;28;20036;-53
2021/04/29 01:40:02;;;;;;;7.30;4.57;;;;;;;;;;5033238;28;20043;-54
2021/04/29 01:42:28;;;;;;;7.88;4.72;;;;;;;;;;5032066;28;20030;-54
2021/04/29 01:44:53;;;;;;;6.95;4.70;;;;;;;;;;5047317;28;20027;-53
2021/04/29 01:47:19;;;;;;;9.30;4.50;;;;;;;;;;5033523;28;20389;-54
2021/04/29 01:49:45;;;;;;;9.25;4.43;;;;;;;;;;5029177;28;20021;-54
2021/04/29 01:52:10;;;;;;;5.60;4.70;;;;;;;;;;5032760;28;20037;-54
2021/04/29 01:54:37;;;;;;;6.60;4.57;;;;;;;;;;5032039;28;20026;-52
2021/04/29 01:57:03;;;;;;;7.82;4.70;;;;;;;;;;5031472;28;20026;-53
2021/04/29 01:59:28;;;;;;;6.45;4.55;;;;;;;;;;5029302;28;20328;-54
2021/04/29 02:01:53;;;;;;;8.20;4.25;;;;;;;;;;5041143;28;20071;-54
2021/04/29 02:04:19;;;;;;;10.70;4.55;;;;;;;;;;5042586;28;20025;-54
2021/04/29 02:06:45;;;;;;;6.32;4.30;;;;;;;;;;5031944;28;20049;-50
2021/04/29 02:09:11;;;;;;;8.27;5.20;;;;;;;;;;5029221;28;20033;-55
2021/04/29 02:11:52;;;;;;;6.97;4.78;;;;;;;;;;5033429;28;20024;-54
2021/04/29 02:14:21;;;;;;;9.13;4.45;;;;;;;;;;5031811;28;20022;-54
2021/04/29 02:16:47;;;;;;;7.13;4.28;;;;;;;;;;5032410;28;20457;-51
2021/04/29 02:19:12;;;;;;;6.93;4.80;;;;;;;;;;5029341;28;20356;-55
2021/04/29 02:21:40;;;;;;;8.45;4.10;;;;;;;;;;5037250;28;20094;-52
2021/04/29 02:24:06;;;;;;;8.02;4.43;;;;;;;;;;5031584;28;20025;-51
2021/04/29 02:26:32;;;;;;;5.15;4.20;;;;;;;;;;5031807;28;20067;-53
2021/04/29 02:28:57;;;;;;;7.60;4.82;;;;;;;;;;5029115;28;20477;-52
2021/04/29 02:31:23;;;;;;;9.95;5.03;;;;;;;;;;5031206;28;20059;-54
2021/04/29 02:33:49;;;;;;;9.05;4.55;;;;;;;;;;5031641;28;20057;-53
2021/04/29 02:36:15;;;;;;;6.88;4.57;;;;;;;;;;5031269;28;20017;-54
2021/04/29 02:38:40;;;;;;;33.25;6.90;;;;;;;;;;5037279;28;20076;-53
2021/04/29 02:41:06;;;;;;;5.72;4.43;;;;;;;;;;5029485;28;20028;-52
2021/04/29 02:43:31;;;;;;;5.78;4.90;;;;;;;;;;5032103;28;20088;-53
2021/04/29 02:45:57;;;;;;;8.15;4.85;;;;;;;;;;5031811;28;20100;-53
2021/04/29 02:48:22;;;;;;;7.10;4.20;;;;;;;;;;5031679;28;20468;-53
2021/04/29 02:50:47;;;;;;;6.53;5.05;;;;;;;;;;5028470;28;20013;-51
2021/04/29 02:53:17;;;;;;;7.03;4.88;;;;;;;;;;5031095;28;20466;-53
2021/04/29 02:55:42;;;;;;;6.97;4.93;;;;;;;;;;5031315;28;20013;-53
2021/04/29 02:58:09;;;;;;;7.15;5.70;;;;;;;;;;5031035;28;20029;-52
2021/04/29 03:00:35;;;;;;;6.60;4.32;;;;;;;;;;5025691;28;20415;-54
2021/04/29 03:03:01;;;;;;;5.75;4.43;;;;;;;;;;5030961;28;20167;-54
2021/04/29 03:05:26;;;;;;;6.40;4.55;;;;;;;;;;5031757;28;20112;-52
2021/04/29 03:07:52;;;;;;;7.13;4.78;;;;;;;;;;5031141;28;20033;-53
2021/04/29 03:10:17;;;;;;;6.63;4.70;;;;;;;;;;5028501;28;20052;-55
2021/04/29 03:12:43;;;;;;;7.63;4.53;;;;;;;;;;5030731;28;20076;-54
2021/04/29 03:15:09;;;;;;;5.97;4.80;;;;;;;;;;5031527;28;20045;-53
2021/04/29 03:17:34;;;;;;;5.07;4.47;;;;;;;;;;5030768;28;20021;-51
2021/04/29 03:20:00;;;;;;;6.72;4.70;;;;;;;;;;5027996;28;20035;-54
2021/04/29 03:22:25;;;;;;;7.30;5.03;;;;;;;;;;5031012;28;20026;-54
2021/04/29 03:24:50;;;;;;;6.03;4.93;;;;;;;;;;5030856;28;20068;-51
2021/04/29 03:27:16;;;;;;;11.27;5.03;;;;;;;;;;5031030;28;20028;-55
2021/04/29 03:29:41;;;;;;;6.72;4.72;;;;;;;;;;5028282;28;20032;-53
2021/04/29 03:32:07;;;;;;;8.45;4.82;;;;;;;;;;5030758;28;20022;-51
2021/04/29 03:34:32;;;;;;;5.13;4.45;;;;;;;;;;5030901;28;20026;-55
2021/04/29 03:36:57;;;;;;;6.82;4.47;;;;;;;;;;5031055;28;20441;-51
2021/04/29 03:39:22;;;;;;;6.32;4.70;;;;;;;;;;5028234;28;20483;-54
2021/04/29 03:41:48;;;;;;;6.10;4.63;;;;;;;;;;5030457;28;20025;-51
2021/04/29 03:44:13;;;;;;;4.93;4.30;;;;;;;;;;5031336;28;20499;-55
2021/04/29 03:46:38;;;;;;;5.53;4.32;;;;;;;;;;5030698;28;20026;-54
2021/04/29 03:49:03;;;;;;;6.10;4.53;;;;;;;;;;5027903;28;20029;-54
2021/04/29 03:51:28;;;;;;;6.22;4.93;;;;;;;;;;5030979;28;20378;-53
2021/04/29 03:53:54;;;;;;;6.57;4.55;;;;;;;;;;5044573;28;20025;-52
2021/04/29 03:56:19;;;;;;;7.35;4.70;;;;;;;;;;5050018;28;20017;-55
2021/04/29 03:58:44;;;;;;;7.40;5.05;;;;;;;;;;5035385;28;20021;-52
2021/04/29 04:01:09;;;;;;;8.02;4.80;;;;;;;;;;5029577;28;20018;-55
2021/04/29 04:03:35;;;;;;;5.93;5.05;;;;;;;;;;5022293;28;20048;-54
2021/04/29 04:06:00;;;;;;;7.85;5.68;;;;;;;;;;5030900;28;20046;-52
2021/04/29 04:08:25;;;;;;;6.65;4.57;;;;;;;;;;5025868;28;20036;-53
2021/04/29 04:10:51;;;;;;;8.63;4.93;;;;;;;;;;5027546;28;20142;-53
2021/04/29 04:13:19;;;;;;;5.95;4.60;;;;;;;;;;5034389;28;20017;-54
2021/04/29 04:15:45;;;;;;;6.38;4.72;;;;;;;;;;5034132;28;20057;-53
2021/04/29 04:18:10;;;;;;;7.82;5.30;;;;;;;;;;5034397;28;20476;-54
2021/04/29 04:20:35;;;;;;;6.65;5.53;;;;;;;;;;5034527;28;20495;-53
2021/04/29 04:23:00;;;;;;;9.25;4.90;;;;;;;;;;5039329;28;20403;-55
2021/04/29 04:25:26;;;;;;;7.22;5.00;;;;;;;;;;5034057;28;20654;-55
2021/04/29 04:27:51;;;;;;;8.57;5.22;;;;;;;;;;5033384;28;20069;-53
2021/04/29 04:30:16;;;;;;;7.45;5.22;;;;;;;;;;5030741;28;20025;-54
2021/04/29 04:32:42;;;;;;;9.23;5.55;;;;;;;;;;5034029;28;20025;-54
2021/04/29 04:35:08;;;;;;;7.15;5.18;;;;;;;;;;5033301;28;20060;-53
2021/04/29 04:37:33;;;;;;;10.27;5.10;;;;;;;;;;5033155;28;20037;-55
2021/04/29 04:39:59;;;;;;;9.02;5.68;;;;;;;;;;5030648;28;20021;-50
2021/04/29 04:42:24;;;;;;;6.55;4.80;;;;;;;;;;5033553;28;20017;-56
2021/04/29 04:44:49;;;;;;;5.55;5.05;;;;;;;;;;5032373;28;20580;-53
2021/04/29 04:47:14;;;;;;;9.52;5.60;;;;;;;;;;5033208;28;20032;-52
2021/04/29 04:49:40;;;;;;;6.13;4.75;;;;;;;;;;5030786;28;20014;-55
2021/04/29 04:52:05;;;;;;;8.18;6.60;;;;;;;;;;5033562;28;20013;-55
2021/04/29 04:54:30;;;;;;;10.57;5.38;;;;;;;;;;5033551;28;20025;-55
2021/04/29 04:56:55;;;;;;;7.88;4.32;;;;;;;;;;5033039;28;20041;-56
2021/04/29 04:59:20;;;;;;;7.00;4.93;;;;;;;;;;5030076;28;20075;-53
2021/04/29 05:01:46;;;;;;;12.07;5.20;;;;;;;;;;5033123;28;20037;-55
2021/04/29 05:04:11;;;;;;;5.95;4.90;;;;;;;;;;5033711;28;20039;-55
2021/04/29 05:06:36;;;;;;;7.72;5.65;;;;;;;;;;5032830;28;20174;-50
2021/04/29 05:09:02;;;;;;;8.43;5.60;;;;;;;;;;5029632;28;20065;-55
2021/04/29 05:11:28;;;;;;;5.63;4.95;;;;;;;;;;5032726;28;20122;-54
2021/04/29 05:13:53;;;;;;;8.13;4.95;;;;;;;;;;5033288;28;20551;-52
2021/04/29 05:16:18;;;;;;;10.05;5.45;;;;;;;;;;5038116;28;20029;-54
2021/04/29 05:18:43;;;;;;;7.78;5.25;;;;;;;;;;5051355;28;20427;-54
2021/04/29 05:21:09;;;;;;;6.30;5.70;;;;;;;;;;5030945;28;20083;-53
2021/04/29 05:23:34;;;;;;;8.15;5.78;;;;;;;;;;5032357;28;20025;-51
2021/04/29 05:25:59;;;;;;;7.53;6.07;;;;;;;;;;5032454;28;20049;-56
2021/04/29 05:28:24;;;;;;;6.53;5.57;;;;;;;;;;5032740;28;20053;-54
2021/04/29 05:30:49;;;;;;;7.30;5.47;;;;;;;;;;5028776;28;20630;-54
2021/04/29 05:33:15;;;;;;;8.45;5.68;;;;;;;;;;5033724;28;20480;-55
2021/04/29 05:35:40;;;;;;;7.32;6.55;;;;;;;;;;5032863;28;20457;-51
2021/04/29 05:38:05;;;;;;;7.50;6.70;;;;;;;;;;5032775;28;20025;-55
2021/04/29 05:40:30;;;;;;;8.25;5.68;;;;;;;;;;5028845;28;20395;-53
2021/04/29 05:42:56;;;;;;;7.93;7.13;;;;;;;;;;5033106;28;20021;-53
2021/04/29 05:45:21;;;;;;;7.32;6.25;;;;;;;;;;5032116;28;20463;-55
2021/04/29 05:47:46;;;;;;;9.82;6.45;;;;;;;;;;5032009;28;20029;-52
2021/04/29 05:50:12;;;;;;;8.98;6.82;;;;;;;;;;5030942;28;20025;-52
2021/04/29 05:52:37;;;;;;;7.97;6.57;;;;;;;;;;5027831;28;20021;-53
2021/04/29 05:55:03;;;;;;;8.13;7.00;;;;;;;;;;5031295;28;20385;-54
2021/04/29 05:57:28;;;;;;;10.55;6.90;;;;;;;;;;5031310;28;20492;-55
2021/04/29 05:59:54;;;;;;;10.15;6.25;;;;;;;;;;5027818;28;20022;-55
2021/04/29 06:02:19;;;;;;;8.90;7.45;;;;;;;;;;5031787;28;20094;-56
2021/04/29 06:04:44;;;;;;;13.98;10.93;;;;;;;;;;5032059;28;20084;-53
2021/04/29 06:07:09;;;;;;;8.82;7.90;;;;;;;;;;5031770;28;20041;-54
2021/04/29 06:09:35;;;;;;;10.20;7.20;;;;;;;;;;5028405;28;20306;-55
2021/04/29 06:12:00;;;;;;;8.50;7.18;;;;;;;;;;5031153;28;20013;-55
2021/04/29 06:14:26;;;;;;;10.23;7.30;;;;;;;;;;5031899;28;20025;-54
2021/04/29 06:16:51;;;;;;;10.02;7.20;;;;;;;;;;5031064;28;20120;-53
2021/04/29 06:19:17;;;;;;;12.15;7.97;;;;;;;;;;5028403;28;20043;-54
2021/04/29 06:21:43;;;;;;;12.10;10.13;;;;;;;;;;5030766;28;20013;-56
2021/04/29 06:24:09;;;;;;;10.98;8.10;;;;;;;;;;5031688;28;20057;-54
2021/04/29 06:26:34;;;;;;;8.10;7.22;;;;;;;;;;5031181;28;20539;-54
2021/04/29 06:28:59;;;;;;;10.80;8.55;;;;;;;;;;5027994;28;20281;-56
2021/04/29 06:31:24;;;;;;;9.60;8.63;;;;;;;;;;5028918;28;20049;-54
2021/04/29 06:33:50;;;;;;;9.40;7.25;;;;;;;;;;5045226;28;20120;-55
2021/04/29 06:36:15;;;;;;;10.82;7.97;;;;;;;;;;5039466;28;20026;-54
2021/04/29 06:38:40;;;;;;;11.07;9.80;;;;;;;;;;5030224;28;20057;-52
2021/04/29 06:41:06;;;;;;;9.65;8.48;;;;;;;;;;5035842;28;20421;-51
2021/04/29 06:43:31;;;;;;;11.60;8.10;;;;;;;;;;5036467;28;20475;-54
2021/04/29 06:45:57;;;;;;;8.93;7.50;;;;;;;;;;5029547;28;20059;-50
2021/04/29 06:48:22;;;;;;;8.50;7.70;;;;;;;;;;5031120;28;20481;-51
2021/04/29 06:50:48;;;;;;;9.57;8.00;;;;;;;;;;5024820;28;20025;-49
2021/04/29 06:53:13;;;;;;;7.95;7.15;;;;;;;;;;5029977;28;20029;-50
2021/04/29 06:55:38;;;;;;;8.80;7.35;;;;;;;;;;5029811;28;20028;-53
2021/04/29 06:58:04;;;;;;;11.25;8.02;;;;;;;;;;5029327;28;20029;-50
2021/04/29 07:00:29;;;;;;;10.32;8.63;;;;;;;;;;5009670;28;20041;-52
2021/04/29 07:02:59;;;;;;;9.73;8.13;;;;;;;;;;5024633;28;20099;-56
2021/04/29 07:05:24;;;;;;;10.82;8.63;;;;;;;;;;5029625;28;20025;-51
2021/04/29 07:07:56;;;;;;;10.20;8.07;;;;;;;;;;5028228;28;20540;-52
2021/04/29 07:10:22;;;;;;;10.30;8.13;;;;;;;;;;5026123;28;20032;-53
2021/04/29 07:12:47;;;;;;;11.95;7.32;;;;;;;;;;5026385;28;20014;-53
2021/04/29 07:15:13;;;;;;;8.73;7.25;;;;;;;;;;5037537;28;20494;-52
2021/04/29 07:17:38;;;;;;;11.00;8.25;;;;;;;;;;5038587;28;20026;-53
2021/04/29 07:20:04;;;;;;;11.18;8.13;;;;;;;;;;5039861;28;20071;-51
2021/04/29 07:22:30;;;;;;;9.80;7.00;;;;;;;;;;5031359;28;20026;-50
2021/04/29 07:24:55;;;;;;;9.55;7.40;;;;;;;;;;5030173;28;20078;-54
2021/04/29 07:27:20;;;;;;;10.15;7.65;;;;;;;;;;5028673;28;20018;-52
2021/04/29 07:29:45;;;;;;;9.25;8.25;;;;;;;;;;5031914;28;20061;-51
2021/04/29 07:32:10;;;;;;;8.23;7.43;;;;;;;;;;5030702;28;20053;-54
2021/04/29 07:34:36;;;;;;;9.90;7.35;;;;;;;;;;5027164;28;20076;-56
2021/04/29 07:37:03;;;;;;;9.98;8.40;;;;;;;;;;5033182;28;20021;-49
2021/04/29 07:39:29;;;;;;;10.43;7.32;;;;;;;;;;5028090;28;20261;-54
2021/04/29 07:41:54;;;;;;;10.00;8.80;;;;;;;;;;5029602;28;20366;-51
2021/04/29 07:44:19;;;;;;;11.73;8.80;;;;;;;;;;5030312;28;20021;-54
2021/04/29 07:46:45;;;;;;;12.40;8.38;;;;;;;;;;5032279;28;20092;-54
2021/04/29 07:49:10;;;;;;;11.27;9.13;;;;;;;;;;5031392;28;20113;-55
2021/04/29 07:51:35;;;;;;;8.55;6.50;;;;;;;;;;5034134;28;20045;-54
2021/04/29 07:54:03;;;;;;;8.20;7.40;;;;;;;;;;5033846;28;20116;-55
2021/04/29 07:56:29;;;;;;;9.50;7.97;;;;;;;;;;5031287;28;20024;-54
2021/04/29 07:58:54;;;;;;;12.20;8.07;;;;;;;;;;5023064;28;20025;-55
2021/04/29 08:01:19;;;;;;;7.95;5.57;;;;;;;;;;5034024;28;20473;-55
2021/04/29 08:03:44;;;;;;;8.90;8.00;;;;;;;;;;5033440;28;20024;-53
2021/04/29 08:06:09;;;;;;;10.13;7.25;;;;;;;;;;5032600;28;20041;-56
2021/04/29 08:08:35;;;;;;;9.77;8.77;;;;;;;;;;5026124;28;20499;-53
2021/04/29 08:11:00;;;;;;;9.32;8.40;;;;;;;;;;5041400;28;20428;-53
2021/04/29 08:13:25;;;;;;;11.27;9.60;;;;;;;;;;5033391;28;20060;-56
2021/04/29 08:15:50;;;;;;;11.07;9.02;;;;;;;;;;5032580;28;20176;-55
2021/04/29 08:18:16;;;;;;;10.10;9.10;;;;;;;;;;5037338;28;20045;-55
2021/04/29 08:20:42;;;;;;;11.63;9.38;;;;;;;;;;5036356;28;20033;-54
2021/04/29 08:23:07;;;;;;;9.77;8.60;;;;;;;;;;5031999;28;20056;-54
2021/04/29 08:25:33;;;;;;;5.10;4.25;;;;;;;;;;5033822;28;20099;-55
2021/04/29 08:27:58;;;;;;;10.20;8.43;;;;;;;;;;5026501;28;20029;-54
2021/04/29 08:30:27;;;;;;;9.63;8.63;;;;;;;;;;5030870;28;20438;-56
2021/04/29 08:32:56;;;;;;;10.05;8.50;;;;;;;;;;5032753;28;20164;-51
2021/04/29 08:35:22;;;;;;;8.35;7.18;;;;;;;;;;5034339;28;20087;-54
2021/04/29 08:37:47;;;;;;;8.52;7.13;;;;;;;;;;5033839;28;20489;-52
2021/04/29 08:40:12;;;;;;;9.63;8.38;;;;;;;;;;5030379;28;20492;-54
2021/04/29 08:42:38;;;;;;;7.97;7.18;;;;;;;;;;5046455;28;20617;-55
2021/04/29 08:45:04;;;;;;;7.85;6.80;;;;;;;;;;5053304;28;20017;-52
2021/04/29 08:47:29;;;;;;;8.23;7.20;;;;;;;;;;5035425;28;20109;-51
2021/04/29 08:49:55;;;;;;;9.27;6.18;;;;;;;;;;5041429;28;20139;-54
2021/04/29 08:52:20;;;;;;;5.75;5.15;;;;;;;;;;5032909;28;20049;-54
2021/04/29 08:54:47;;;;;;;5.43;4.82;;;;;;;;;;5032763;28;20372;-48
2021/04/29 08:57:12;;;;;;;2.67;2.35;;;;;;;;;;5032841;28;20028;-55
2021/04/29 08:59:38;;;;;;;3.83;3.33;;;;;;;;;;5029678;28;20018;-52
2021/04/29 09:02:03;;;;;;;5.00;4.10;;;;;;;;;;5032943;28;20045;-54
2021/04/29 09:04:37;;;;;;;4.30;3.90;;;;;;;;;;5032261;28;20018;-55
2021/04/29 09:07:10;;;;;;;3.88;3.58;;;;;;;;;;5032512;28;20562;-55
2021/04/29 09:09:39;;;;;;;4.15;3.70;;;;;;;;;;5030048;28;20046;-54
2021/04/29 09:12:04;;;;;;;3.60;3.30;;;;;;;;;;5032843;28;20484;-51
2021/04/29 09:14:30;;;;;;;2.85;2.65;;;;;;;;;;5033343;28;20026;-53
2021/04/29 09:16:55;;;;;;;4.03;3.15;;;;;;;;;;5033103;28;20032;-54
2021/04/29 09:19:28;;;;;;;2.65;1.67;;;;;;;;;;5034889;28;20025;-54
2021/04/29 09:21:54;;;;;;;4.35;2.83;;;;;;;;;;5032852;28;20028;-54
2021/04/29 09:24:29;;;;;;;4.38;3.20;;;;;;;;;;5033268;28;20017;-54
2021/04/29 09:26:54;;;;;;;4.35;3.78;;;;;;;;;;5031891;28;20026;-53
2021/04/29 09:29:20;;;;;;;4.43;4.03;;;;;;;;;;5029800;28;20104;-53
2021/04/29 09:31:45;;;;;;;4.03;3.70;;;;;;;;;;5032362;28;20372;-56
2021/04/29 09:34:11;;;;;;;4.03;2.97;;;;;;;;;;5032259;28;20492;-55
2021/04/29 09:36:38;;;;;;;2.85;1.90;;;;;;;;;;5032478;28;20108;-54
2021/04/29 09:39:04;;;;;;;2.60;2.40;;;;;;;;;;5029520;28;20099;-54
2021/04/29 09:41:31;;;;;;;2.67;2.22;;;;;;;;;;5033130;28;20026;-55
2021/04/29 09:43:58;;;;;;;5.25;2.25;;;;;;;;;;5034030;28;20338;-55
2021/04/29 09:46:24;;;;;;;2.20;1.90;;;;;;;;;;5036855;28;20025;-52
2021/04/29 09:48:50;;;;;;;4.53;2.00;;;;;;;;;;5029748;28;20025;-50
2021/04/29 09:51:18;;;;;;;1.65;1.55;;;;;;;;;;5031394;28;20021;-55
2021/04/29 09:53:47;;;;;;;3.03;1.65;;;;;;;;;;5040106;28;20044;-51
2021/04/29 09:56:13;;;;;;;3.28;2.00;;;;;;;;;;5034085;28;20052;-55
2021/04/29 09:58:44;;;;;;;2.47;1.77;;;;;;;;;;5031209;28;20017;-51
2021/04/29 10:01:10;;;;;;;1.88;1.17;;;;;;;;;;5026966;28;20014;-53
2021/04/29 10:03:35;;;;;;;4.20;3.30;;;;;;;;;;5032196;28;20394;-55
2021/04/29 10:06:00;;;;;;;15.95;1.98;;;;;;;;;;5031772;28;20072;-53
2021/04/29 10:08:27;;;;;;;3.58;2.80;;;;;;;;;;5017904;28;20342;-52
2021/04/29 10:10:56;;;;;;;3.10;2.72;;;;;;;;;;5028021;28;20068;-55
2021/04/29 10:13:24;;;;;;;3.80;3.50;;;;;;;;;;5032259;28;20018;-54
2021/04/29 10:15:50;;;;;;;4.15;3.35;;;;;;;;;;5031752;28;20465;-53
2021/04/29 10:18:16;;;;;;;3.70;2.53;;;;;;;;;;5031747;28;20025;-53
2021/04/29 10:20:48;;;;;;;6.97;3.22;;;;;;;;;;5028580;28;20032;-55
2021/04/29 10:23:18;;;;;;;4.22;3.83;;;;;;;;;;5030730;28;20040;-53
2021/04/29 10:25:53;;;;;;;3.95;3.25;;;;;;;;;;5031624;28;20029;-53
2021/04/29 10:28:32;;;;;;;4.32;3.70;;;;;;;;;;5031122;28;20031;-48
2021/04/29 10:30:58;;;;;;;3.55;3.22;;;;;;;;;;5017267;28;20017;-52
2021/04/29 10:33:23;;;;;;;6.38;4.07;;;;;;;;;;5030754;28;20039;-50
2021/04/29 10:35:58;;;;;;;3.92;3.45;;;;;;;;;;5031107;28;20083;-54
2021/04/29 10:38:23;;;;;;;;;;;;;;;;;;5031986;28;20460;-54
2021/04/29 10:40:49;;;;;;;4.15;2.40;;;;;;;;;;5027849;28;20004;-53
2021/04/29 10:43:14;;;;;;;4.07;3.67;;;;;;;;;;5031280;28;20021;-53
2021/04/29 10:45:50;;;;;;;2.42;2.22;;;;;;;;;;5030618;28;20025;-55
2021/04/29 10:48:15;;;;;;;5.07;2.38;;;;;;;;;;5030799;28;20534;-51
2021/04/29 10:50:44;;;;;;;4.28;3.80;;;;;;;;;;5026455;28;20021;-51
2021/04/29 10:53:11;;;;;;;3.25;2.67;;;;;;;;;;5031481;28;20010;-53
2021/04/29 10:55:38;;;;;;;4.65;2.83;;;;;;;;;;5027436;28;20013;-52
2021/04/29 10:58:05;;;;;;;2.90;2.20;;;;;;;;;;5036433;28;20035;-56
2021/04/29 11:00:32;;;;;;;4.05;3.75;;;;;;;;;;5035191;28;20048;-52
2021/04/29 11:03:02;;;;;;;4.18;3.88;;;;;;;;;;5033642;28;20056;-52
2021/04/29 11:05:28;;;;;;;3.40;3.08;;;;;;;;;;5035609;28;20025;-50
2021/04/29 11:07:53;;;;;;;4.07;3.05;;;;;;;;;;5027570;28;20140;-54
2021/04/29 11:10:19;;;;;;;4.88;3.78;;;;;;;;;;5032968;28;20006;-53
2021/04/29 11:12:46;;;;;;;3.47;2.92;;;;;;;;;;5030647;28;20038;-53
2021/04/29 11:15:17;;;;;;;3.83;3.53;;;;;;;;;;5031133;28;20100;-55
2021/04/29 11:17:42;;;;;;;3.47;2.83;;;;;;;;;;5032277;28;20280;-55
2021/04/29 11:20:08;;;;;;;4.13;3.80;;;;;;;;;;5036790;28;20067;-51
2021/04/29 11:22:34;;;;;;;2.40;2.05;;;;;;;;;;5048426;28;20025;-56
2021/04/29 11:25:00;;;;;;;5.60;4.20;;;;;;;;;;5036117;28;20021;-54
2021/04/29 11:27:26;;;;;;;5.07;3.50;;;;;;;;;;5041443;28;20025;-54
2021/04/29 11:29:56;;;;;;;4.68;4.20;;;;;;;;;;5036214;28;20020;-56
2021/04/29 11:32:21;;;;;;;2.65;2.00;;;;;;;;;;5036365;28;20029;-53
2021/04/29 11:34:47;;;;;;;4.45;4.05;;;;;;;;;;5046364;28;20013;-56
2021/04/29 11:37:14;;;;;;;5.80;3.47;;;;;;;;;;5041177;28;20025;-54
2021/04/29 11:39:39;;;;;;;4.95;3.10;;;;;;;;;;5031943;28;20025;-56
2021/04/29 11:42:04;;;;;;;3.92;3.58;;;;;;;;;;5034144;28;20596;-55
2021/04/29 11:44:30;;;;;;;4.22;3.53;;;;;;;;;;5042522;28;20075;-55
2021/04/29 11:46:58;;;;;;;5.65;3.53;;;;;;;;;;5033024;28;20030;-53
2021/04/29 11:49:23;;;;;;;6.18;3.83;;;;;;;;;;5031270;28;20021;-56
2021/04/29 11:51:49;;;;;;;2.78;2.50;;;;;;;;;;5034842;28;20100;-53
2021/04/29 11:54:18;;;;;;;3.92;2.78;;;;;;;;;;5034986;28;20032;-56
2021/04/29 11:56:43;;;;;;;3.97;3.08;;;;;;;;;;5035942;28;21517;-54
2021/04/29 11:59:09;;;;;;;5.57;2.67;;;;;;;;;;5037421;28;20201;-52
2021/04/29 12:01:35;;;;;;;6.18;2.80;;;;;;;;;;5042396;28;20030;-53
2021/04/29 12:04:12;;;;;;;2.80;2.22;;;;;;;;;;5042471;28;20033;-55
2021/04/29 12:06:47;;;;;;;4.20;3.50;;;;;;;;;;5033776;28;20496;-55
2021/04/29 12:09:12;;;;;;;3.25;2.45;;;;;;;;;;5039420;28;20108;-57
2021/04/29 12:11:38;;;;;;;4.00;2.10;;;;;;;;;;5046479;28;20172;-55
2021/04/29 12:14:03;;;;;;;3.28;1.80;;;;;;;;;;5036191;28;20013;-55
2021/04/29 12:16:29;;;;;;;2.78;1.77;;;;;;;;;;5035465;28;20045;-56
2021/04/29 12:18:56;;;;;;;2.85;1.60;;;;;;;;;;5035567;28;20425;-53
2021/04/29 12:21:21;;;;;;;1.80;1.70;;;;;;;;;;5036450;28;20019;-55
2021/04/29 12:23:55;;;;;;;1.90;1.02;;;;;;;;;;5038898;28;20456;-56
2021/04/29 12:26:27;;;;;;;1.48;0.75;;;;;;;;;;5034908;28;20021;-55
2021/04/29 12:28:58;;;;;;;3.65;1.10;;;;;;;;;;5033585;28;20768;-56
2021/04/29 12:31:23;;;;;;;1.73;0.85;;;;;;;;;;5036079;28;20032;-53
2021/04/29 12:33:53;;;;;;;2.23;0.90;;;;;;;;;;5050614;28;20025;-54
2021/04/29 12:36:18;;;;;;;2.53;1.13;;;;;;;;;;5044351;28;20288;-53
2021/04/29 12:38:44;;;;;;;1.35;1.10;;;;;;;;;;5038995;28;20444;-55
2021/04/29 12:41:09;;;;;;;2.90;1.30;;;;;;;;;;5031597;28;20044;-55
2021/04/29 12:43:35;;;;;;;3.92;1.08;;;;;;;;;;5034740;28;20360;-50
2021/04/29 12:46:02;;;;;;;2.67;1.60;;;;;;;;;;5041202;28;20064;-54
2021/04/29 12:48:35;;;;;;;3.47;1.73;;;;;;;;;;5034209;28;20053;-51
2021/04/29 12:51:02;;;;;;;3.97;1.20;;;;;;;;;;5031596;28;20025;-52
2021/04/29 12:53:27;;;;;;;4.32;1.48;;;;;;;;;;5039720;28;20025;-53
2021/04/29 12:55:52;;;;;;;1.77;0.93;;;;;;;;;;5033232;28;20017;-52
2021/04/29 12:58:23;;;;;;;4.35;1.17;;;;;;;;;;5034689;28;20032;-55
2021/04/29 13:00:52;;;;;;;1.67;1.33;;;;;;;;;;5044779;28;20461;-53
2021/04/29 13:03:17;;;;;;;1.48;0.85;;;;;;;;;;5040270;28;20034;-53
2021/04/29 13:05:42;;;;;;;2.33;0.60;;;;;;;;;;5041913;28;20052;-54
2021/04/29 13:08:07;;;;;;;1.53;0.97;;;;;;;;;;5040780;28;20079;-55
2021/04/29 13:10:39;;;;;;;1.77;1.47;;;;;;;;;;5030344;28;20813;-55
2021/04/29 13:13:04;;;;;;;1.77;1.33;;;;;;;;;;5033061;28;20276;-55
2021/04/29 13:15:30;;;;;;;2.40;1.20;;;;;;;;;;5039288;28;20028;-54
2021/04/29 13:17:56;;;;;;;2.80;1.23;;;;;;;;;;5042459;28;20294;-54
2021/04/29 13:20:21;;;;;;;2.45;1.30;;;;;;;;;;5029953;28;20545;-53
2021/04/29 13:22:47;;;;;;;2.08;1.30;;;;;;;;;;5033057;28;20529;-52
2021/04/29 13:25:14;;;;;;;1.30;1.17;;;;;;;;;;5038727;28;20233;-54
2021/04/29 13:27:39;;;;;;;2.40;0.85;;;;;;;;;;5047728;28;20484;-54
2021/04/29 13:30:05;;;;;;;2.25;1.00;;;;;;;;;;5031310;28;20071;-54
2021/04/29 13:32:32;;;;;;;0.95;0.60;;;;;;;;;;5032668;28;20473;-53
2021/04/29 13:34:57;;;;;;;5.53;0.90;;;;;;;;;;5050843;28;20021;-54
2021/04/29 13:37:23;;;;;;;1.92;0.98;;;;;;;;;;5031050;28;20021;-54
2021/04/29 13:39:48;;;;;;;3.47;1.00;;;;;;;;;;5027995;28;20087;-52
2021/04/29 13:42:13;;;;;;;1.80;0.70;;;;;;;;;;5031845;28;20049;-54
2021/04/29 13:44:39;;;;;;;1.80;0.45;;;;;;;;;;5031857;28;20025;-53
2021/04/29 13:47:05;;;;;;;2.88;0.70;;;;;;;;;;5032903;28;20025;-53
2021/04/29 13:49:31;;;;;;;2.00;0.70;;;;;;;;;;5029769;28;20022;-54
2021/04/29 13:51:57;;;;;;;2.65;0.80;;;;;;;;;;5032705;28;20021;-55
2021/04/29 13:54:22;;;;;;;1.17;0.80;;;;;;;;;;5032435;28;20530;-54
2021/04/29 13:56:47;;;;;;;0.98;0.60;;;;;;;;;;5031272;28;20557;-56
2021/04/29 13:59:13;;;;;;;3.97;0.80;;;;;;;;;;5028506;28;20772;-50
2021/04/29 14:01:38;;;;;;;2.92;0.90;;;;;;;;;;5031735;28;20026;-54
2021/04/29 14:04:04;;;;;;;1.58;0.60;;;;;;;;;;5032198;28;20076;-53
2021/04/29 14:06:29;;;;;;;2.33;0.65;;;;;;;;;;5030974;28;20048;-55
2021/04/29 14:08:54;;;;;;;2.17;0.98;;;;;;;;;;5011306;28;20026;-54
2021/04/29 14:11:23;;;;;;;2.60;0.98;;;;;;;;;;5015393;28;20039;-56
2021/04/29 14:13:49;;;;;;;1.27;0.75;;;;;;;;;;5031545;28;20041;-55
2021/04/29 14:16:14;;;;;;;3.63;0.70;;;;;;;;;;5031155;28;20049;-53
2021/04/29 14:18:39;;;;;;;1.48;0.90;;;;;;;;;;5030345;28;20025;-54
2021/04/29 14:21:04;;;;;;;1.55;0.70;;;;;;;;;;5028528;28;20029;-52
2021/04/29 14:23:29;;;;;;;1.42;0.68;;;;;;;;;;5031093;28;20014;-54
2021/04/29 14:25:55;;;;;;;2.67;0.50;;;;;;;;;;5032115;28;20076;-51
2021/04/29 14:28:20;;;;;;;1.42;0.60;;;;;;;;;;5031624;28;20455;-56
2021/04/29 14:30:45;;;;;;;3.00;0.50;;;;;;;;;;5028201;28;20044;-54
2021/04/29 14:33:11;;;;;;;3.55;0.57;;;;;;;;;;5031058;28;20023;-53
2021/04/29 14:35:36;;;;;;;9.52;0.95;;;;;;;;;;5030621;28;20021;-54